< Typhoon 198908 1989 Season Typhoon 198910 >
Typhoon 198909 (HOPE)
General InformationTrack Information on Google MapsDetailed Wind InformationList of All Images || NewsDisaster Info.ResourceGoogle EarthGE AnimationAtom FeedGeoJSON
Detalied Best Track (Time Zone = UTC)
Year Month Day Hour Lat. Long. Pressure (hPa) Wind (kt) Class Image Chart
1989 7 15 12 20.0 136.5 1006 0 2 Image Chart
1989 7 15 18 20.2 135.3 1004 0 2 Image Chart
1989 7 16 00 20.5 134.6 1002 0 2 Image Chart
1989 7 16 06 20.8 133.8 1000 0 2 Image Chart
1989 7 16 12 21.1 132.9 998 35 3 Image Chart
1989 7 16 18 21.3 131.7 992 45 3 Image Chart
1989 7 17 00 21.8 130.8 990 45 3 Image Chart
1989 7 17 06 22.7 130.0 990 45 3 Image Chart
1989 7 17 12 23.8 129.0 990 45 3 Image Chart
1989 7 17 18 24.4 128.0 990 45 3 Image Chart
1989 7 18 00 24.8 126.9 990 45 3 Image Chart
1989 7 18 06 25.0 126.4 990 45 3 Image Chart
1989 7 18 12 25.4 125.8 990 45 3 Image Chart
1989 7 18 18 26.0 125.1 990 45 3 Image Chart
1989 7 19 00 26.6 124.7 990 45 3 Image Chart
1989 7 19 06 27.1 124.2 992 45 3 Image Chart
1989 7 19 12 27.7 123.9 994 40 3 Image Chart
1989 7 19 18 28.3 123.5 994 40 3 Image Chart
1989 7 20 00 28.7 123.1 996 40 3 Image Chart
1989 7 20 06 28.9 122.7 996 40 3 Image Chart
1989 7 20 12 29.0 122.3 996 40 3 Image Chart
1989 7 20 18 29.0 122.0 996 40 3 Image Chart
1989 7 21 00 29.2 121.6 1000 40 3 Image Chart
1989 7 21 06 29.4 121.2 1002 0 2 Image Chart
1989 7 21 12 29.6 120.8 1002 0 2 Image Chart
1989 7 21 18 29.8 120.4 1002 0 2 Image Chart
1989 7 22 00 30.0 120.0 1002 0 2 Image Chart
Japan Meteorological Agency Best Track Data | Correction Date : 1992-10-21
< Typhoon 198908 1989 Season Typhoon 198910 >

Help